Nassau, Delaware
Current Conditions -  °F | °C
As of 6:54 AM on Wednesday 28 Jan 2015 (Local Time) from KGED Reporting Station
Clear Clear  
Wind Chill: 14°   Ceiling: Unl
Heat Index: 22°   Visibility: 10mi
Dew Point:   Wind: 6mph
Humidity: 48%   Direction: 310°NW
Pressure: 30.09"   Gusts: NA
Location:  38.75°N, 75.19°W
Report Text: KGED 281154Z AUTO 31005KT 10SM CLR M06/M15 A3009 RMK AO2 SLP189 T10561150 11022 21056 53028
Loading
Personal Weather Stations






























Interactive Weather Map New forecast layout! Learn more

10-Day Weather Forecast

Advertisements
Track Severe Weather on mobile